Time;durP1;ratioP1;P1;durP2;ratioP2;P2;SDS_P1;SDS_P2;PMS_P1;PMS_P2;Temp;Humidity;BMP_temperature;BMP_pressure;BME280_temperature;BME280_humidity;BME280_pressure;Samples;Min_cycle;Max_cycle;Signal;HPM_P1;HPM_P2
2023/01/29 00:01:16;;;;;;;11.68;7.68;;;-2.20;99.90;;;;;;5020013;28;20026;-87
2023/01/29 00:03:42;;;;;;;14.38;8.80;;;-2.20;99.90;;;;;;5031738;28;20132;-88
2023/01/29 00:06:08;;;;;;;15.98;7.82;;;-2.20;99.90;;;;;;5035501;28;20055;-86
2023/01/29 00:08:35;;;;;;;13.77;8.13;;;-2.20;99.90;;;;;;5023961;28;20029;-88
2023/01/29 00:11:07;;;;;;;12.50;8.05;;;-2.20;99.90;;;;;;5030690;28;20029;-88
2023/01/29 00:13:35;;;;;;;10.95;7.13;;;-2.20;99.90;;;;;;5032175;28;20331;-87
2023/01/29 00:16:02;;;;;;;13.55;7.15;;;-2.20;99.90;;;;;;5040314;28;20064;-88
2023/01/29 00:18:28;;;;;;;18.77;7.72;;;-2.20;99.90;;;;;;5036601;28;20070;-87
2023/01/29 00:20:55;;;;;;;14.00;8.52;;;-2.20;99.90;;;;;;5044546;28;20025;-88
2023/01/29 00:23:21;;;;;;;11.70;7.53;;;-2.10;99.90;;;;;;5035113;28;20056;-88
2023/01/29 00:25:47;;;;;;;11.02;7.53;;;-2.10;99.90;;;;;;5031440;28;20049;-87
2023/01/29 00:28:13;;;;;;;10.43;7.68;;;-2.10;99.90;;;;;;5022301;28;20118;-87
2023/01/29 00:30:38;;;;;;;14.60;8.30;;;-2.10;99.90;;;;;;5026360;28;20483;-87
2023/01/29 00:33:04;;;;;;;19.35;8.23;;;-2.10;99.90;;;;;;5035188;28;20040;-87
2023/01/29 00:35:31;;;;;;;12.85;8.45;;;-2.10;99.90;;;;;;5034312;28;20040;-88
2023/01/29 00:37:57;;;;;;;11.35;7.70;;;-2.20;99.90;;;;;;5034079;28;20444;-88
2023/01/29 00:40:25;;;;;;;15.52;8.90;;;-2.20;99.90;;;;;;5034464;28;20025;-88
2023/01/29 00:45:36;;;;;;;12.68;8.52;;;-2.10;99.90;;;;;;5026881;28;20060;-85
2023/01/29 00:48:03;;;;;;;14.68;8.48;;;-2.10;99.90;;;;;;5032797;28;20102;-87
2023/01/29 00:50:29;;;;;;;18.60;9.70;;;-2.10;99.90;;;;;;5037751;28;20029;-87
2023/01/29 00:52:55;;;;;;;16.88;10.05;;;-2.10;99.90;;;;;;5025186;28;20014;-86
2023/01/29 00:55:20;;;;;;;16.13;9.65;;;-2.10;99.90;;;;;;5036047;28;20025;-88
2023/01/29 00:57:46;;;;;;;17.10;10.25;;;-2.10;99.90;;;;;;5031640;28;20532;-86
2023/01/29 01:00:15;;;;;;;18.40;9.52;;;-2.00;99.90;;;;;;5030468;28;20025;-87
2023/01/29 01:05:26;;;;;;;17.17;9.32;;;-2.00;99.90;;;;;;5027830;28;20505;-87
2023/01/29 01:07:54;;;;;;;21.13;9.20;;;-2.00;99.90;;;;;;5033050;28;20029;-87
2023/01/29 01:10:23;;;;;;;24.95;9.70;;;-2.00;99.90;;;;;;5034675;28;20038;-87
2023/01/29 01:12:55;;;;;;;28.40;9.48;;;-2.00;99.90;;;;;;5021209;28;20267;-86
2023/01/29 01:15:22;;;;;;;15.88;8.52;;;-2.00;99.90;;;;;;5026251;28;20490;-87
2023/01/29 01:17:55;;;;;;;17.30;8.43;;;-2.00;99.90;;;;;;5031753;28;20041;-87
2023/01/29 01:20:21;;;;;;;16.45;8.02;;;-2.00;99.90;;;;;;5031024;28;20168;-87
2023/01/29 01:22:47;;;;;;;11.77;7.55;;;-2.10;99.90;;;;;;5039497;28;20052;-87
2023/01/29 01:25:12;;;;;;;13.07;7.22;;;-2.10;99.90;;;;;;5031807;28;20041;-88
2023/01/29 01:27:40;;;;;;;11.60;6.70;;;-2.10;99.90;;;;;;5029872;28;20037;-88
2023/01/29 01:30:13;;;;;;;16.20;6.78;;;-2.10;99.90;;;;;;5026919;28;20056;-87
2023/01/29 01:32:40;;;;;;;12.23;6.80;;;-2.10;99.90;;;;;;5032381;28;20621;-87
2023/01/29 01:35:07;;;;;;;13.27;6.38;;;-2.10;99.90;;;;;;5030431;28;20024;-87
2023/01/29 01:37:32;;;;;;;14.98;6.15;;;-2.10;99.90;;;;;;5027958;28;20087;-88
2023/01/29 01:39:58;;;;;;;8.15;5.28;;;-2.10;99.90;;;;;;5034244;28;20017;-87
2023/01/29 01:42:29;;;;;;;9.35;5.50;;;-2.10;99.90;;;;;;5024774;28;20026;-86
2023/01/29 01:44:54;;;;;;;12.20;5.07;;;-2.20;99.90;;;;;;5030487;28;20031;-87
2023/01/29 01:47:30;;;;;;;15.02;6.38;;;-2.20;99.90;;;;;;5032562;28;20043;-87
2023/01/29 01:50:01;;;;;;;13.40;5.60;;;-2.20;99.90;;;;;;5027365;28;20044;-88
2023/01/29 01:52:30;;;;;;;5.88;4.40;;;-2.20;99.90;;;;;;5036090;28;20381;-87
2023/01/29 01:54:56;;;;;;;6.78;4.45;;;-2.20;99.90;;;;;;5026721;28;20117;-87
2023/01/29 01:57:23;;;;;;;6.55;4.90;;;-2.20;99.90;;;;;;5026665;28;20025;-88
2023/01/29 01:59:58;;;;;;;9.05;5.85;;;-2.20;99.90;;;;;;5024693;28;20025;-87
2023/01/29 02:10:44;;;;;;;6.28;4.35;;;-2.20;99.90;;;;;;5031875;28;20056;-87
2023/01/29 02:13:11;;;;;;;4.97;3.70;;;-2.30;99.90;;;;;;5019361;28;20030;-87
2023/01/29 02:15:40;;;;;;;3.88;3.58;;;-2.30;99.90;;;;;;5034668;28;20041;-87
2023/01/29 02:18:07;;;;;;;8.43;3.72;;;-2.30;99.90;;;;;;5030127;28;20062;-87
2023/01/29 02:20:39;;;;;;;8.77;3.88;;;-2.30;99.90;;;;;;5029782;28;20029;-87
2023/01/29 02:23:15;;;;;;;6.68;3.40;;;-2.30;99.90;;;;;;5029689;28;20053;-87
2023/01/29 02:26:06;;;;;;;;;;;-2.30;99.90;;;;;;5028592;28;20115;-87
2023/01/29 02:29:42;;;;;;;10.05;3.10;;;-2.30;99.90;;;;;;5019936;28;19915;-87
2023/01/29 02:32:19;;;;;;;3.20;2.88;;;-2.30;99.90;;;;;;4962906;28;20034;-86
2023/01/29 02:38:30;;;;;;;3.88;2.70;;;-2.30;99.90;;;;;;5029067;28;20556;-86
2023/01/29 02:41:30;;;;;;;3.50;2.75;;;-2.40;99.90;;;;;;5030376;28;20087;-87
2023/01/29 02:44:13;;;;;;;4.35;2.30;;;-2.30;99.90;;;;;;5038736;28;20237;-87
2023/01/29 02:46:59;;;;;;;4.60;2.60;;;-2.30;99.90;;;;;;5025859;28;20576;-87
2023/01/29 02:49:52;;;;;;;3.90;2.22;;;-2.30;99.90;;;;;;5033358;28;20025;-85
2023/01/29 02:52:24;;;;;;;16.02;3.17;;;-2.30;99.90;;;;;;5033540;28;20112;-87
2023/01/29 02:55:01;;;;;;;3.38;3.05;;;-2.20;99.90;;;;;;5039598;28;20404;-87
2023/01/29 02:57:37;;;;;;;4.25;2.50;;;-2.20;99.90;;;;;;5031707;28;20065;-87
2023/01/29 03:00:14;;;;;;;5.10;2.80;;;-2.30;99.90;;;;;;5040637;28;20428;-86
2023/01/29 03:02:47;;;;;;;3.80;2.40;;;-2.20;99.90;;;;;;5033533;28;20482;-85
2023/01/29 03:05:24;;;;;;;2.55;2.35;;;-2.30;99.90;;;;;;5029219;28;20044;-87
2023/01/29 03:07:57;;;;;;;5.47;2.80;;;-2.30;99.90;;;;;;5033830;28;20456;-87
2023/01/29 03:10:26;;;;;;;2.45;2.25;;;-2.30;99.90;;;;;;5032041;28;20064;-87
2023/01/29 03:13:12;;;;;;;3.17;2.25;;;-2.30;99.90;;;;;;5033880;28;20044;-87
2023/01/29 03:15:50;;;;;;;3.78;2.63;;;-2.30;99.90;;;;;;5035247;28;20060;-87
2023/01/29 03:18:24;;;;;;;3.20;2.70;;;-2.30;99.90;;;;;;5034744;28;20021;-87
2023/01/29 03:20:59;;;;;;;3.45;2.55;;;-2.30;99.90;;;;;;5033037;28;20032;-87
2023/01/29 03:32:02;;;;;;;3.97;2.53;;;-2.10;99.90;;;;;;5029829;28;20048;-87
2023/01/29 03:34:37;;;;;;;5.32;2.92;;;-2.10;99.90;;;;;;5032784;28;20040;-87
2023/01/29 03:37:31;;;;;;;5.25;3.05;;;-2.10;99.90;;;;;;5034601;28;20111;-87
2023/01/29 03:39:57;;;;;;;4.72;3.10;;;-2.10;99.90;;;;;;5035033;28;20026;-86
2023/01/29 03:42:28;;;;;;;3.47;2.50;;;-2.10;99.90;;;;;;5031830;28;20444;-86
2023/01/29 03:45:15;;;;;;;3.40;2.67;;;-2.10;99.90;;;;;;5032115;28;20044;-87
2023/01/29 03:47:44;;;;;;;2.72;2.53;;;-2.10;99.90;;;;;;5031851;28;20037;-87
2023/01/29 03:50:34;;;;;;;4.07;2.50;;;-2.00;99.90;;;;;;5036742;28;20032;-87
2023/01/29 03:53:18;;;;;;;2.47;2.28;;;-1.90;99.90;;;;;;5038611;28;20029;-86
2023/01/29 03:56:09;;;;;;;4.30;2.70;;;-1.90;99.90;;;;;;5030742;28;20068;-87
2023/01/29 03:59:01;;;;;;;6.90;3.00;;;-1.90;99.90;;;;;;5025222;28;20083;-87
2023/01/29 04:01:34;;;;;;;2.95;2.60;;;-1.90;99.90;;;;;;5025638;28;20029;-86
2023/01/29 04:04:17;;;;;;;5.65;3.22;;;-1.80;99.90;;;;;;5037971;28;20055;-87
2023/01/29 04:06:46;;;;;;;3.95;3.08;;;-1.80;99.90;;;;;;5033540;28;20042;-87
2023/01/29 04:09:23;;;;;;;7.53;2.88;;;-1.70;99.90;;;;;;5037558;28;20060;-87
2023/01/29 04:12:01;;;;;;;3.97;2.50;;;-1.80;99.90;;;;;;5029595;28;20049;-87
2023/01/29 04:14:27;;;;;;;6.40;3.65;;;-1.70;99.90;;;;;;5041929;28;20032;-86
2023/01/29 04:16:56;;;;;;;3.60;2.90;;;-1.70;99.90;;;;;;5035277;28;20075;-86
2023/01/29 04:19:22;;;;;;;3.17;2.88;;;-1.70;99.90;;;;;;5030669;28;20032;-87
2023/01/29 04:21:52;;;;;;;5.95;3.50;;;-1.60;99.90;;;;;;5034289;28;20034;-87
2023/01/29 04:24:17;;;;;;;4.85;2.55;;;-1.60;99.90;;;;;;5039206;28;20124;-87
2023/01/29 04:27:02;;;;;;;2.60;2.40;;;-1.50;99.90;;;;;;5032536;28;20067;-87
2023/01/29 04:29:47;;;;;;;2.35;2.17;;;-1.50;99.90;;;;;;5025613;28;20105;-87
2023/01/29 04:32:12;;;;;;;2.72;2.30;;;-1.50;99.90;;;;;;5020397;28;20140;-87
2023/01/29 04:34:38;;;;;;;2.47;2.28;;;-1.50;99.90;;;;;;5033094;28;20463;-86
2023/01/29 04:37:37;;;;;;;7.20;3.90;;;-1.40;99.90;;;;;;5037090;28;20025;-86
2023/01/29 04:40:14;;;;;;;5.38;3.65;;;-1.30;99.90;;;;;;5013897;28;20099;-87
2023/01/29 04:43:17;;;;;;;11.57;3.53;;;-1.20;99.90;;;;;;5029934;28;20651;-87
2023/01/29 04:46:04;;;;;;;9.30;3.50;;;-1.00;99.90;;;;;;5028401;28;20060;-86
2023/01/29 04:48:48;;;;;;;9.98;3.42;;;-0.80;99.90;;;;;;5026992;28;20037;-87
2023/01/29 04:51:38;;;;;;;3.40;3.10;;;-0.70;99.90;;;;;;5024151;28;20103;-86
2023/01/29 04:54:27;;;;;;;4.35;3.28;;;-0.60;99.90;;;;;;5024828;28;20030;-86
2023/01/29 04:57:03;;;;;;;6.57;3.70;;;-0.60;99.90;;;;;;5019389;28;20450;-86
2023/01/29 04:59:40;;;;;;;6.40;3.20;;;-0.60;99.90;;;;;;5034496;28;20037;-87
2023/01/29 05:02:51;;;;;;;;;;;-0.60;99.90;;;;;;5105286;27;20461;-86
2023/01/29 05:05:18;;;;;;;;;;;-0.60;99.90;;;;;;5099756;28;19908;-88
2023/01/29 05:07:44;;;;;;;4.38;2.88;;;-0.60;99.90;;;;;;5088052;28;20342;-88
2023/01/29 05:10:13;;;;;;;8.63;2.90;;;-0.50;99.90;;;;;;5085244;28;20449;-87
2023/01/29 05:12:40;;;;;;;4.55;2.70;;;-0.40;99.90;;;;;;5084428;28;20066;-87
2023/01/29 05:15:13;;;;;;;6.38;3.08;;;-0.30;99.90;;;;;;5080570;28;20025;-85
2023/01/29 05:17:39;;;;;;;5.47;2.63;;;-0.30;99.90;;;;;;5084490;28;20036;-87
2023/01/29 05:20:06;;;;;;;8.98;3.78;;;-0.30;99.90;;;;;;5088801;28;20458;-86
2023/01/29 05:22:32;;;;;;;3.15;2.50;;;-0.20;99.90;;;;;;5086376;28;20071;-87
2023/01/29 05:24:57;;;;;;;6.88;3.08;;;-0.10;99.90;;;;;;5082834;28;20035;-88
2023/01/29 05:30:17;;;;;;;7.35;2.50;;;0.10;99.90;;;;;;5081622;28;20086;-87
2023/01/29 05:32:42;;;;;;;5.82;2.50;;;0.30;99.90;;;;;;5081768;28;20036;-88
2023/01/29 05:35:08;;;;;;;2.97;2.45;;;0.40;99.90;;;;;;5085047;28;20023;-87
2023/01/29 05:37:34;;;;;;;4.82;2.53;;;0.40;99.90;;;;;;5083996;28;20028;-87
2023/01/29 05:39:59;;;;;;;4.55;2.50;;;0.50;99.90;;;;;;5090614;28;20032;-87
2023/01/29 05:42:25;;;;;;;5.90;2.47;;;0.50;99.90;;;;;;5083036;28;20041;-87
2023/01/29 05:44:50;;;;;;;3.08;2.28;;;0.60;99.90;;;;;;5085077;28;20032;-87
2023/01/29 05:47:19;;;;;;;3.80;2.78;;;0.50;99.90;;;;;;5084764;28;20103;-88
2023/01/29 05:49:44;;;;;;;4.22;2.60;;;0.50;99.90;;;;;;5084057;28;20028;-87
2023/01/29 05:52:10;;;;;;;8.90;3.00;;;0.50;99.90;;;;;;5090578;28;20065;-85
2023/01/29 05:54:35;;;;;;;3.67;2.67;;;0.50;99.90;;;;;;5084791;28;20101;-85
2023/01/29 05:57:01;;;;;;;3.38;2.80;;;0.50;99.90;;;;;;5087403;28;20036;-88
2023/01/29 05:59:26;;;;;;;4.60;3.13;;;0.50;99.90;;;;;;5082770;28;20358;-87
2023/01/29 06:01:52;;;;;;;6.93;3.55;;;0.60;99.90;;;;;;5089472;28;20404;-87
2023/01/29 06:04:17;;;;;;;5.57;2.92;;;0.60;99.90;;;;;;5083654;28;20025;-87
2023/01/29 06:06:43;;;;;;;6.53;2.78;;;0.60;99.90;;;;;;5085919;28;20037;-88
2023/01/29 06:09:10;;;;;;;3.65;2.75;;;0.70;99.90;;;;;;5080813;28;20060;-87
2023/01/29 06:11:36;;;;;;;5.55;2.78;;;0.80;99.90;;;;;;5088399;28;20478;-89
2023/01/29 06:14:01;;;;;;;6.93;3.53;;;0.80;99.90;;;;;;5074919;28;20124;-87
2023/01/29 06:16:27;;;;;;;5.85;3.28;;;0.90;99.90;;;;;;5072983;28;20551;-89
2023/01/29 06:18:52;;;;;;;2.95;2.60;;;0.80;99.90;;;;;;5076709;28;20024;-87
2023/01/29 06:21:18;;;;;;;9.35;4.80;;;0.90;99.90;;;;;;5069811;28;20032;-87
2023/01/29 06:23:44;;;;;;;5.50;4.20;;;0.80;99.90;;;;;;5073461;28;20236;-88
2023/01/29 06:26:11;;;;;;;9.30;4.30;;;0.80;99.90;;;;;;5067264;28;20024;-87
2023/01/29 06:28:38;;;;;;;9.75;4.35;;;0.80;99.90;;;;;;5072528;28;20032;-87
2023/01/29 06:31:05;;;;;;;5.13;3.88;;;0.80;99.90;;;;;;5070933;28;20029;-87
2023/01/29 06:33:31;;;;;;;50.95;18.58;;;0.70;99.90;;;;;;5070272;28;20032;-86
2023/01/29 06:36:02;;;;;;;65.03;21.33;;;0.60;99.90;;;;;;5071023;28;20040;-87
2023/01/29 06:38:28;;;;;;;71.80;22.48;;;0.60;99.90;;;;;;5073187;28;20484;-87
2023/01/29 06:40:54;;;;;;;15.68;5.90;;;0.60;99.90;;;;;;5072019;28;20103;-87
2023/01/29 06:43:20;;;;;;;10.63;5.13;;;0.60;99.90;;;;;;5067077;28;20472;-87
2023/01/29 06:45:51;;;;;;;8.60;5.18;;;0.60;99.90;;;;;;5080082;28;20055;-88
2023/01/29 06:48:17;;;;;;;6.53;3.63;;;0.60;99.90;;;;;;5066033;28;20070;-86
2023/01/29 06:50:43;;;;;;;7.20;4.45;;;0.70;99.90;;;;;;5068541;28;20075;-88
2023/01/29 06:53:09;;;;;;;5.07;3.80;;;0.70;99.90;;;;;;5066452;28;20032;-88
2023/01/29 06:55:35;;;;;;;9.48;5.45;;;0.60;99.90;;;;;;5070568;28;20074;-87
2023/01/29 06:58:08;;;;;;;11.52;5.68;;;0.60;99.90;;;;;;5063223;28;20032;-87
2023/01/29 07:00:36;;;;;;;10.13;5.50;;;0.60;99.90;;;;;;5061023;28;20032;-88
2023/01/29 07:03:03;;;;;;;9.93;5.38;;;0.60;99.90;;;;;;5065227;28;20029;-88
2023/01/29 07:05:29;;;;;;;9.63;5.82;;;0.60;99.90;;;;;;5063121;28;20377;-89
2023/01/29 07:07:55;;;;;;;13.27;5.65;;;0.60;99.90;;;;;;5068862;28;20520;-88
2023/01/29 07:10:21;;;;;;;5.90;4.97;;;0.60;99.90;;;;;;5064785;28;20116;-88
2023/01/29 07:12:46;;;;;;;8.88;5.35;;;0.60;99.90;;;;;;5064082;28;20474;-87
2023/01/29 07:15:12;;;;;;;13.23;7.43;;;0.60;99.90;;;;;;5063046;28;20370;-89
2023/01/29 07:17:38;;;;;;;12.45;6.88;;;0.70;99.90;;;;;;5065334;28;20143;-88
2023/01/29 07:20:06;;;;;;;12.60;5.80;;;0.90;99.90;;;;;;5067310;28;20021;-88
2023/01/29 07:22:32;;;;;;;6.43;4.80;;;1.00;99.90;;;;;;5068196;28;20129;-88
2023/01/29 07:24:57;;;;;;;9.77;4.80;;;1.00;99.90;;;;;;5077635;28;20051;-89
2023/01/29 07:27:23;;;;;;;7.53;5.18;;;1.00;99.90;;;;;;5066085;28;20032;-86
2023/01/29 07:29:49;;;;;;;10.57;5.78;;;1.10;99.90;;;;;;5066238;28;20055;-87
2023/01/29 07:32:14;;;;;;;12.90;6.20;;;1.10;99.90;;;;;;5076380;28;20098;-90
2023/01/29 07:34:40;;;;;;;11.32;6.70;;;1.00;99.90;;;;;;5071148;28;20028;-88
2023/01/29 07:37:05;;;;;;;9.23;6.28;;;1.00;99.90;;;;;;5077855;28;20026;-88
2023/01/29 07:39:32;;;;;;;12.80;7.20;;;1.00;99.90;;;;;;5069728;28;20118;-89
2023/01/29 07:41:57;;;;;;;12.48;8.30;;;1.00;99.90;;;;;;5064269;28;20123;-89
2023/01/29 07:44:23;;;;;;;16.00;9.95;;;1.00;99.90;;;;;;5066930;28;20111;-88
2023/01/29 07:46:48;;;;;;;13.30;8.73;;;1.10;99.90;;;;;;5065748;28;20068;-88
2023/01/29 07:49:15;;;;;;;17.98;9.25;;;1.10;99.90;;;;;;5060966;28;20240;-88
2023/01/29 07:51:40;;;;;;;17.55;10.02;;;1.10;99.90;;;;;;5061144;28;20033;-86
2023/01/29 07:54:06;;;;;;;16.25;8.43;;;1.10;99.90;;;;;;5066481;28;20116;-89
2023/01/29 07:56:31;;;;;;;13.65;8.70;;;1.10;99.90;;;;;;5076254;28;20071;-88
2023/01/29 07:58:57;;;;;;;17.33;10.02;;;1.10;99.90;;;;;;5072592;28;20547;-88
2023/01/29 08:01:23;;;;;;;16.98;10.60;;;1.00;99.90;;;;;;5061726;28;20396;-89
2023/01/29 08:03:48;;;;;;;18.15;10.85;;;1.00;99.90;;;;;;5060717;28;20032;-88
2023/01/29 08:06:14;;;;;;;18.35;10.35;;;1.00;99.90;;;;;;5066216;28;20036;-89
2023/01/29 08:08:39;;;;;;;23.40;10.65;;;1.00;99.90;;;;;;5060205;28;20052;-89
2023/01/29 08:11:05;;;;;;;20.65;11.95;;;1.00;99.90;;;;;;5063429;28;20490;-89
2023/01/29 08:13:32;;;;;;;20.15;12.50;;;1.00;99.90;;;;;;5067431;28;20032;-90
2023/01/29 08:16:02;;;;;;;18.65;11.43;;;1.10;99.90;;;;;;5074520;28;20481;-90
2023/01/29 08:18:28;;;;;;;21.75;12.45;;;1.10;99.90;;;;;;5062635;28;20028;-91
2023/01/29 08:21:01;;;;;;;31.05;14.40;;;1.10;99.90;;;;;;5070738;28;20491;-88
2023/01/29 08:23:26;;;;;;;21.58;13.07;;;1.10;99.90;;;;;;5068993;28;20043;-89
2023/01/29 08:25:52;;;;;;;26.08;14.98;;;1.10;99.90;;;;;;5068887;28;20025;-90
2023/01/29 08:28:18;;;;;;;26.08;13.77;;;1.10;99.90;;;;;;5069025;28;20025;-90
2023/01/29 08:30:43;;;;;;;36.55;17.60;;;1.10;99.90;;;;;;5085566;28;20051;-91
2023/01/29 08:33:09;;;;;;;25.17;13.63;;;1.10;99.90;;;;;;5068527;28;20104;-89
2023/01/29 08:35:34;;;;;;;34.17;14.05;;;1.10;99.90;;;;;;5082392;28;20031;-88
2023/01/29 08:38:03;;;;;;;26.05;13.85;;;1.10;99.90;;;;;;5069855;28;20459;-86
2023/01/29 08:40:31;;;;;;;22.48;12.93;;;1.10;99.90;;;;;;5070361;28;20115;-89
2023/01/29 08:42:58;;;;;;;21.48;11.38;;;1.10;99.90;;;;;;5066783;28;20194;-90
2023/01/29 08:45:23;;;;;;;26.42;13.57;;;1.10;99.90;;;;;;5067417;28;20578;-90
2023/01/29 08:47:49;;;;;;;25.13;12.85;;;1.20;99.90;;;;;;5065619;28;20070;-88
2023/01/29 08:50:16;;;;;;;27.85;10.73;;;1.10;99.90;;;;;;5067597;28;20257;-91
2023/01/29 08:52:42;;;;;;;21.90;10.20;;;1.10;99.90;;;;;;5064815;28;20040;-89
2023/01/29 08:55:08;;;;;;;20.20;10.65;;;1.20;99.90;;;;;;5062143;28;20029;-88
2023/01/29 08:57:34;;;;;;;23.23;11.68;;;1.20;99.90;;;;;;5070181;28;20029;-89
2023/01/29 08:59:59;;;;;;;17.92;10.45;;;1.20;99.90;;;;;;5065763;28;20029;-87
2023/01/29 09:02:25;;;;;;;16.95;10.43;;;1.20;99.90;;;;;;5073841;28;20052;-90
2023/01/29 09:04:51;;;;;;;20.00;10.27;;;1.20;99.90;;;;;;5066681;28;20024;-89
2023/01/29 09:07:16;;;;;;;23.25;12.00;;;1.30;99.90;;;;;;5058328;28;20025;-90
2023/01/29 09:09:42;;;;;;;24.85;12.80;;;1.30;99.90;;;;;;5066389;28;20025;-93
2023/01/29 09:12:07;;;;;;;25.85;13.85;;;1.30;99.90;;;;;;5080145;28;20020;-90
2023/01/29 09:14:33;;;;;;;29.63;13.73;;;1.30;99.90;;;;;;5064471;28;20493;-89
2023/01/29 09:16:58;;;;;;;27.13;14.65;;;1.30;99.90;;;;;;5068027;28;20020;-88
2023/01/29 09:19:24;;;;;;;25.60;13.65;;;1.30;99.90;;;;;;5062168;28;20024;-88
2023/01/29 09:21:49;;;;;;;24.35;12.73;;;1.30;99.90;;;;;;5061555;28;20047;-91
2023/01/29 09:24:15;;;;;;;31.08;14.63;;;1.30;99.90;;;;;;5067738;28;20095;-88
2023/01/29 09:26:40;;;;;;;23.33;13.13;;;1.30;99.90;;;;;;5064800;28;20116;-91
2023/01/29 09:29:08;;;;;;;24.30;13.98;;;1.30;99.90;;;;;;5071931;28;20466;-89
2023/01/29 09:31:34;;;;;;;22.30;13.25;;;1.30;99.90;;;;;;5060580;28;20477;-91
2023/01/29 09:33:59;;;;;;;22.77;13.93;;;1.30;99.90;;;;;;5073539;28;20119;-88
2023/01/29 09:36:25;;;;;;;27.67;14.15;;;1.30;99.90;;;;;;5074160;28;20506;-89
2023/01/29 09:38:50;;;;;;;28.52;14.23;;;1.30;99.90;;;;;;5078580;28;20027;-90
2023/01/29 09:41:22;;;;;;;25.02;13.82;;;1.30;99.90;;;;;;5068736;28;20052;-91
2023/01/29 09:44:04;;;;;;;27.42;13.50;;;1.30;99.90;;;;;;5060287;28;20021;-89
2023/01/29 09:46:46;;;;;;;28.70;13.25;;;1.30;99.90;;;;;;5067544;28;20084;-91
2023/01/29 09:49:25;;;;;;;32.78;14.60;;;1.30;99.90;;;;;;5066143;28;20108;-90
2023/01/29 09:51:56;;;;;;;26.75;14.77;;;1.30;99.90;;;;;;5075375;28;20554;-90
2023/01/29 09:54:26;;;;;;;51.08;24.70;;;1.30;99.90;;;;;;5081263;28;20393;-92
2023/01/29 09:56:55;;;;;;;24.20;13.32;;;1.20;99.90;;;;;;5079222;28;20063;-92
2023/01/29 09:59:23;;;;;;;25.25;14.75;;;1.20;99.90;;;;;;5071151;28;20044;-89
2023/01/29 10:02:42;;;;;;;26.65;15.00;;;1.20;99.90;;;;;;5076394;28;20383;-88
2023/01/29 10:05:14;;;;;;;24.35;14.38;;;1.20;99.90;;;;;;4988802;28;20034;-90
2023/01/29 10:08:10;;;;;;;27.40;13.43;;;1.20;99.90;;;;;;5022808;28;20117;-90
2023/01/29 10:10:38;;;;;;;23.85;14.55;;;1.20;99.90;;;;;;5048316;28;20452;-91
2023/01/29 10:13:38;;;;;;;23.23;13.18;;;1.20;99.90;;;;;;5074232;28;20032;-93
2023/01/29 10:16:26;;;;;;;24.02;14.10;;;1.20;99.90;;;;;;5077055;28;20103;-93
2023/01/29 10:18:52;;;;;;;25.50;13.75;;;1.20;99.90;;;;;;5067108;28;20024;-92
2023/01/29 10:21:31;;;;;;;29.38;15.75;;;1.20;99.90;;;;;;5064404;28;20870;-88
2023/01/29 10:24:16;;;;;;;31.45;15.05;;;1.20;99.90;;;;;;5068323;28;20024;-90
2023/01/29 10:26:42;;;;;;;32.28;15.50;;;1.20;99.90;;;;;;5065448;28;20037;-90
2023/01/29 10:29:16;;;;;;;27.63;15.75;;;1.20;99.90;;;;;;5073851;28;20024;-90
2023/01/29 10:31:45;;;;;;;27.27;13.70;;;1.20;99.90;;;;;;5078055;28;20170;-90
2023/01/29 10:34:18;;;;;;;28.63;15.55;;;1.20;99.90;;;;;;5066190;28;20029;-91
2023/01/29 10:36:48;;;;;;;27.02;15.02;;;1.20;99.90;;;;;;5070073;28;20071;-91
2023/01/29 10:39:17;;;;;;;28.38;15.30;;;1.20;99.90;;;;;;5074400;28;20376;-89
2023/01/29 10:41:55;;;;;;;25.67;15.30;;;1.20;99.90;;;;;;5069851;28;20036;-91
2023/01/29 10:45:01;;;;;;;29.60;15.55;;;1.20;99.90;;;;;;5067029;28;20021;-89
2023/01/29 10:48:03;;;;;;;30.98;15.35;;;1.20;99.90;;;;;;5059466;28;20036;-91
2023/01/29 10:50:47;;;;;;;23.55;13.85;;;1.20;99.90;;;;;;5070565;28;20050;-89
2023/01/29 10:53:50;;;;;;;27.33;13.35;;;1.20;99.90;;;;;;5068328;28;20099;-91
2023/01/29 10:56:48;;;;;;;25.38;13.52;;;1.30;99.90;;;;;;5070202;28;20036;-93
2023/01/29 10:59:50;;;;;;;33.38;13.35;;;1.40;99.90;;;;;;5052357;28;20032;-90
2023/01/29 11:02:19;;;;;;;23.08;10.82;;;1.40;99.90;;;;;;5064205;28;20135;-91
2023/01/29 11:04:45;;;;;;;27.58;12.15;;;1.40;99.90;;;;;;5067023;28;20028;-91
2023/01/29 11:07:12;;;;;;;21.15;12.65;;;1.40;99.90;;;;;;5071617;28;20527;-92
2023/01/29 11:10:03;;;;;;;25.08;13.43;;;1.40;99.90;;;;;;5070766;28;20045;-91
2023/01/29 11:12:32;;;;;;;24.08;12.00;;;1.40;99.90;;;;;;5066912;28;20064;-87
2023/01/29 11:15:24;;;;;;;27.50;13.90;;;1.40;99.90;;;;;;5071190;28;20020;-93
2023/01/29 11:18:12;;;;;;;21.90;12.68;;;1.40;99.90;;;;;;5061864;28;20040;-93
2023/01/29 11:20:40;;;;;;;25.85;13.80;;;1.40;99.90;;;;;;5072438;28;20032;-90
2023/01/29 11:23:27;;;;;;;27.42;14.05;;;1.40;99.90;;;;;;5059369;28;20086;-92
2023/01/29 11:25:54;;;;;;;23.58;11.98;;;1.40;99.90;;;;;;5064783;28;20028;-93
2023/01/29 11:28:46;;;;;;;31.30;14.80;;;1.40;99.90;;;;;;5065205;28;20124;-91
2023/01/29 11:31:25;;;;;;;25.13;13.95;;;1.40;99.90;;;;;;5071865;28;20019;-93
2023/01/29 11:34:20;;;;;;;31.92;13.65;;;1.50;99.90;;;;;;5071673;28;20035;-92
2023/01/29 11:36:59;;;;;;;26.13;13.77;;;1.50;99.90;;;;;;5067299;28;20027;-94
2023/01/29 11:39:27;;;;;;;29.08;15.73;;;1.50;99.90;;;;;;5069357;28;20029;-89
2023/01/29 11:42:07;;;;;;;35.38;14.68;;;1.50;99.90;;;;;;5065708;28;20598;-90
2023/01/29 11:44:38;;;;;;;32.20;14.68;;;1.70;99.90;;;;;;5068252;28;20107;-92
2023/01/29 11:47:27;;;;;;;24.70;14.30;;;1.60;99.90;;;;;;5065385;28;20016;-91
2023/01/29 11:49:56;;;;;;;24.20;14.18;;;1.50;99.90;;;;;;5070900;28;20075;-92
2023/01/29 11:52:51;;;;;;;27.75;14.68;;;1.60;99.90;;;;;;5082244;28;20224;-90
2023/01/29 11:55:21;;;;;;;28.58;13.98;;;1.60;99.90;;;;;;5060570;28;20519;-92
2023/01/29 11:57:58;;;;;;;31.02;13.48;;;1.60;99.90;;;;;;5064419;28;20039;-85
2023/01/29 12:00:30;;;;;;;24.08;13.45;;;1.60;99.90;;;;;;5066968;28;20028;-91
2023/01/29 12:03:11;;;;;;;22.60;12.63;;;1.60;99.90;;;;;;5068803;28;20033;-88
2023/01/29 12:05:39;;;;;;;27.92;15.18;;;1.50;99.90;;;;;;5064404;28;20531;-92
2023/01/29 12:08:15;;;;;;;26.42;15.25;;;1.50;99.90;;;;;;5075176;28;20024;-89
2023/01/29 12:10:41;;;;;;;30.27;16.70;;;1.50;99.90;;;;;;5067535;28;20025;-90
2023/01/29 12:13:18;;;;;;;31.23;16.33;;;1.40;99.90;;;;;;5068667;28;20047;-93
2023/01/29 12:15:44;;;;;;;30.38;16.15;;;1.40;99.90;;;;;;5065777;28;20060;-91
2023/01/29 12:18:37;;;;;;;26.42;14.45;;;1.40;99.90;;;;;;5072362;28;20028;-93
2023/01/29 12:21:31;;;;;;;27.55;15.80;;;1.30;99.90;;;;;;5077917;28;20036;-94
2023/01/29 12:23:57;;;;;;;26.95;15.75;;;1.40;99.90;;;;;;5059766;28;20434;-92
2023/01/29 12:26:37;;;;;;;28.75;16.13;;;1.40;99.90;;;;;;5066055;28;20078;-93
2023/01/29 12:29:25;;;;;;;25.23;15.13;;;1.40;99.90;;;;;;5069106;28;20477;-94
2023/01/29 12:32:28;;;;;;;30.75;15.27;;;1.40;99.90;;;;;;5064220;28;20432;-92
2023/01/29 12:35:18;;;;;;;29.30;16.58;;;1.30;99.90;;;;;;5060070;28;20021;-91
2023/01/29 12:37:57;;;;;;;32.78;18.20;;;1.40;99.90;;;;;;5077275;28;20433;-94
2023/01/29 12:40:30;;;;;;;35.70;17.20;;;1.30;99.90;;;;;;5065262;28;20040;-91
2023/01/29 12:43:03;;;;;;;32.97;19.13;;;1.40;99.90;;;;;;5076052;28;20036;-90
2023/01/29 12:45:31;;;;;;;31.90;18.40;;;1.30;99.90;;;;;;5072576;28;20327;-92
2023/01/29 12:48:03;;;;;;;36.33;18.25;;;1.30;99.90;;;;;;5070083;28;20020;-93
2023/01/29 12:50:33;;;;;;;41.10;20.05;;;1.30;99.90;;;;;;5089865;28;20085;-91
2023/01/29 12:53:02;;;;;;;31.27;18.02;;;1.30;99.90;;;;;;5065911;28;20032;-90
2023/01/29 12:55:32;;;;;;;36.88;20.15;;;1.20;99.90;;;;;;5062553;28;20025;-93
2023/01/29 12:58:10;;;;;;;34.00;18.38;;;1.20;99.90;;;;;;5064725;28;20038;-92
2023/01/29 13:00:42;;;;;;;31.17;18.85;;;1.20;99.90;;;;;;5061945;28;20028;-90
2023/01/29 13:03:40;;;;;;;32.85;18.50;;;1.20;99.90;;;;;;5070731;28;20378;-93
2023/01/29 13:06:09;;;;;;;34.97;18.75;;;1.20;99.90;;;;;;5071847;28;20016;-93
2023/01/29 13:08:41;;;;;;;33.42;18.27;;;1.20;99.90;;;;;;5072585;28;20039;-91
2023/01/29 13:11:16;;;;;;;38.58;17.67;;;1.20;99.90;;;;;;5081561;28;20089;-93
2023/01/29 13:13:51;;;;;;;34.80;19.40;;;1.30;99.90;;;;;;5072838;28;20402;-92
2023/01/29 13:16:22;;;;;;;30.85;17.58;;;1.20;99.90;;;;;;5061062;28;20566;-88
2023/01/29 13:18:58;;;;;;;39.33;19.27;;;1.20;99.90;;;;;;5066254;28;20036;-89
2023/01/29 13:21:32;;;;;;;;;;;1.20;99.90;;;;;;5065498;28;20468;-91
2023/01/29 13:24:19;;;;;;;36.72;18.70;;;1.20;99.90;;;;;;5076047;28;19908;-89
2023/01/29 13:26:47;;;;;;;40.60;19.48;;;1.20;99.90;;;;;;5071120;28;20047;-93
2023/01/29 13:29:28;;;;;;;37.33;19.67;;;1.10;99.90;;;;;;5069840;28;20473;-93
2023/01/29 13:32:04;;;;;;;32.58;19.23;;;1.10;99.90;;;;;;5072748;28;20655;-91
2023/01/29 13:34:36;;;;;;;42.38;20.42;;;1.10;99.90;;;;;;5073549;28;20327;-92
2023/01/29 13:37:35;;;;;;;46.85;22.23;;;1.10;99.90;;;;;;5069454;28;20020;-92
2023/01/29 13:40:04;;;;;;;32.00;17.73;;;1.20;99.90;;;;;;5080488;28;20078;-88